Current Weather

Central Il Rgnl/Bloomington-Normal

Bloomington/Normal, Illinois (KBMI)

Report from: Wednesday, April 24, 2024 10:56 PM CDT
Current time: Thursday, April 25, 2024 12:02 AM CDT

Nearby weather – Weather history – Daily summaries
Weather forecast

Temperature3.3°C (37.9°F)
Wind chill-0.3°C (31.5°F)
Dew point1.7°C (35.1°F)
Winds 8 kts (4.1 m/s, 9.2 mph) East (80°)
Visibility10 mi. (16.1 km)
Clouds Sky clear
Altimeter30.29 in.Hg (1026 mB)
Relative humidity89 %
Density altitude-1,746 ft. (-532 m)
Sea-level pressure102.6 kPa (1026 mB, 30.29 in.Hg)
Remarks Fully automated report
Automated weather observing station with precipitation discriminator
Flight conditions Visual Meteorological Conditions
Raw dataKBMI 250356Z AUTO 08008KT 10SM CLR 03/02 A3029 RMK AO2 SLP259 T00330017
An error has occurred. This application may no longer respond until reloaded. Reload 🗙